sensor_id;sensor_type;location;lat;lon;timestamp;temperature;humidity
15947;DHT22;8072;52.554;7.966;2022-08-23T00:01:49;19.40;99.90
15947;DHT22;8072;52.554;7.966;2022-08-23T00:04:38;19.40;99.90
15947;DHT22;8072;52.554;7.966;2022-08-23T00:07:07;19.30;99.90
15947;DHT22;8072;52.554;7.966;2022-08-23T00:09:33;19.30;99.90
15947;DHT22;8072;52.554;7.966;2022-08-23T00:12:06;19.30;99.90
15947;DHT22;8072;52.554;7.966;2022-08-23T00:14:36;19.30;99.90
15947;DHT22;8072;52.554;7.966;2022-08-23T00:17:04;19.30;99.90
15947;DHT22;8072;52.554;7.966;2022-08-23T00:19:30;19.30;99.90
15947;DHT22;8072;52.554;7.966;2022-08-23T00:21:56;19.30;99.90
15947;DHT22;8072;52.554;7.966;2022-08-23T00:24:23;19.30;99.90
15947;DHT22;8072;52.554;7.966;2022-08-23T00:29:18;19.20;99.90
15947;DHT22;8072;52.554;7.966;2022-08-23T00:31:44;19.20;99.90
15947;DHT22;8072;52.554;7.966;2022-08-23T00:34:10;19.20;99.90
15947;DHT22;8072;52.554;7.966;2022-08-23T00:36:37;19.20;99.90
15947;DHT22;8072;52.554;7.966;2022-08-23T00:39:04;19.20;99.90
15947;DHT22;8072;52.554;7.966;2022-08-23T00:41:30;19.20;99.90
15947;DHT22;8072;52.554;7.966;2022-08-23T00:43:57;19.10;99.90
15947;DHT22;8072;52.554;7.966;2022-08-23T00:46:42;19.10;99.90
15947;DHT22;8072;52.554;7.966;2022-08-23T00:49:29;19.10;99.90
15947;DHT22;8072;52.554;7.966;2022-08-23T00:54:30;19.00;99.90
15947;DHT22;8072;52.554;7.966;2022-08-23T00:56:57;19.00;99.90
15947;DHT22;8072;52.554;7.966;2022-08-23T00:59:25;19.00;99.90
15947;DHT22;8072;52.554;7.966;2022-08-23T01:01:51;19.00;99.90
15947;DHT22;8072;52.554;7.966;2022-08-23T01:04:17;19.00;99.90
15947;DHT22;8072;52.554;7.966;2022-08-23T01:06:54;19.00;99.90
15947;DHT22;8072;52.554;7.966;2022-08-23T01:09:23;19.00;99.90
15947;DHT22;8072;52.554;7.966;2022-08-23T01:11:57;19.00;99.90
15947;DHT22;8072;52.554;7.966;2022-08-23T01:14:43;19.00;99.90
15947;DHT22;8072;52.554;7.966;2022-08-23T01:17:34;18.90;99.90
15947;DHT22;8072;52.554;7.966;2022-08-23T01:20:06;18.90;99.90
15947;DHT22;8072;52.554;7.966;2022-08-23T01:25:09;18.90;99.90
15947;DHT22;8072;52.554;7.966;2022-08-23T01:27:36;18.90;99.90
15947;DHT22;8072;52.554;7.966;2022-08-23T01:30:05;18.90;99.90
15947;DHT22;8072;52.554;7.966;2022-08-23T01:32:33;18.90;99.90
15947;DHT22;8072;52.554;7.966;2022-08-23T01:35:00;18.90;99.90
15947;DHT22;8072;52.554;7.966;2022-08-23T01:37:26;18.90;99.90
15947;DHT22;8072;52.554;7.966;2022-08-23T01:39:52;18.90;99.90
15947;DHT22;8072;52.554;7.966;2022-08-23T01:42:19;18.90;99.90
15947;DHT22;8072;52.554;7.966;2022-08-23T01:44:45;18.90;99.90
15947;DHT22;8072;52.554;7.966;2022-08-23T01:47:11;18.90;99.90
15947;DHT22;8072;52.554;7.966;2022-08-23T01:49:36;18.80;99.90
15947;DHT22;8072;52.554;7.966;2022-08-23T01:52:03;18.80;99.90
15947;DHT22;8072;52.554;7.966;2022-08-23T01:54:28;18.80;99.90
15947;DHT22;8072;52.554;7.966;2022-08-23T01:56:54;18.80;99.90
15947;DHT22;8072;52.554;7.966;2022-08-23T01:59:20;18.80;99.90
15947;DHT22;8072;52.554;7.966;2022-08-23T02:01:47;18.80;99.90
15947;DHT22;8072;52.554;7.966;2022-08-23T02:04:13;18.80;99.90
15947;DHT22;8072;52.554;7.966;2022-08-23T02:06:38;18.80;99.90
15947;DHT22;8072;52.554;7.966;2022-08-23T02:09:05;18.80;99.90
15947;DHT22;8072;52.554;7.966;2022-08-23T02:11:33;18.70;99.90
15947;DHT22;8072;52.554;7.966;2022-08-23T02:14:02;18.70;99.90
15947;DHT22;8072;52.554;7.966;2022-08-23T02:16:38;18.70;99.90
15947;DHT22;8072;52.554;7.966;2022-08-23T02:19:07;18.70;99.90
15947;DHT22;8072;52.554;7.966;2022-08-23T02:21:33;18.60;99.90
15947;DHT22;8072;52.554;7.966;2022-08-23T02:24:12;18.50;99.90
15947;DHT22;8072;52.554;7.966;2022-08-23T02:26:40;18.50;99.90
15947;DHT22;8072;52.554;7.966;2022-08-23T02:29:07;18.50;99.90
15947;DHT22;8072;52.554;7.966;2022-08-23T02:31:34;18.40;99.90
15947;DHT22;8072;52.554;7.966;2022-08-23T02:34:00;18.40;99.90
15947;DHT22;8072;52.554;7.966;2022-08-23T02:36:27;18.40;99.90
15947;DHT22;8072;52.554;7.966;2022-08-23T02:38:54;18.30;99.90
15947;DHT22;8072;52.554;7.966;2022-08-23T02:41:21;18.30;99.90
15947;DHT22;8072;52.554;7.966;2022-08-23T02:43:52;18.30;99.90
15947;DHT22;8072;52.554;7.966;2022-08-23T02:46:19;18.20;99.90
15947;DHT22;8072;52.554;7.966;2022-08-23T02:48:46;18.20;99.90
15947;DHT22;8072;52.554;7.966;2022-08-23T02:51:17;18.10;99.90
15947;DHT22;8072;52.554;7.966;2022-08-23T02:53:43;18.10;99.90
15947;DHT22;8072;52.554;7.966;2022-08-23T02:56:10;18.00;99.90
15947;DHT22;8072;52.554;7.966;2022-08-23T02:58:37;18.00;99.90
15947;DHT22;8072;52.554;7.966;2022-08-23T03:01:02;18.00;99.90
15947;DHT22;8072;52.554;7.966;2022-08-23T03:03:28;17.90;99.90
15947;DHT22;8072;52.554;7.966;2022-08-23T03:05:54;17.90;99.90
15947;DHT22;8072;52.554;7.966;2022-08-23T03:08:21;17.90;99.90
15947;DHT22;8072;52.554;7.966;2022-08-23T03:10:49;17.90;99.90
15947;DHT22;8072;52.554;7.966;2022-08-23T03:13:17;17.80;99.90
15947;DHT22;8072;52.554;7.966;2022-08-23T03:15:43;17.80;99.90
15947;DHT22;8072;52.554;7.966;2022-08-23T03:18:09;17.80;99.90
15947;DHT22;8072;52.554;7.966;2022-08-23T03:20:39;17.80;99.90
15947;DHT22;8072;52.554;7.966;2022-08-23T03:23:07;17.70;99.90
15947;DHT22;8072;52.554;7.966;2022-08-23T03:25:34;17.70;99.90
15947;DHT22;8072;52.554;7.966;2022-08-23T03:28:04;17.70;99.90
15947;DHT22;8072;52.554;7.966;2022-08-23T03:30:30;17.60;99.90
15947;DHT22;8072;52.554;7.966;2022-08-23T03:32:56;17.60;99.90
15947;DHT22;8072;52.554;7.966;2022-08-23T03:35:22;17.50;99.90
15947;DHT22;8072;52.554;7.966;2022-08-23T03:37:48;17.50;99.90
15947;DHT22;8072;52.554;7.966;2022-08-23T03:40:13;17.50;99.90
15947;DHT22;8072;52.554;7.966;2022-08-23T03:42:39;17.50;99.90
15947;DHT22;8072;52.554;7.966;2022-08-23T03:45:05;17.50;99.90
15947;DHT22;8072;52.554;7.966;2022-08-23T03:47:31;17.50;99.90
15947;DHT22;8072;52.554;7.966;2022-08-23T03:49:57;17.50;99.90
15947;DHT22;8072;52.554;7.966;2022-08-23T03:52:23;17.40;99.90
15947;DHT22;8072;52.554;7.966;2022-08-23T03:54:50;17.40;99.90
15947;DHT22;8072;52.554;7.966;2022-08-23T03:57:16;17.40;99.90
15947;DHT22;8072;52.554;7.966;2022-08-23T03:59:42;17.40;99.90
15947;DHT22;8072;52.554;7.966;2022-08-23T04:02:08;17.30;99.90
15947;DHT22;8072;52.554;7.966;2022-08-23T04:04:35;17.30;99.90
15947;DHT22;8072;52.554;7.966;2022-08-23T04:07:01;17.30;99.90
15947;DHT22;8072;52.554;7.966;2022-08-23T04:09:27;17.30;99.90
15947;DHT22;8072;52.554;7.966;2022-08-23T04:11:53;17.30;99.90
15947;DHT22;8072;52.554;7.966;2022-08-23T04:14:19;17.20;99.90
15947;DHT22;8072;52.554;7.966;2022-08-23T04:16:45;17.10;99.90
15947;DHT22;8072;52.554;7.966;2022-08-23T04:19:13;17.10;99.90
15947;DHT22;8072;52.554;7.966;2022-08-23T04:21:42;17.00;99.90
15947;DHT22;8072;52.554;7.966;2022-08-23T04:24:09;17.00;99.90
15947;DHT22;8072;52.554;7.966;2022-08-23T04:26:36;16.90;99.90
15947;DHT22;8072;52.554;7.966;2022-08-23T04:29:02;17.00;99.90
15947;DHT22;8072;52.554;7.966;2022-08-23T04:31:28;16.90;99.90
15947;DHT22;8072;52.554;7.966;2022-08-23T04:33:54;16.90;99.90
15947;DHT22;8072;52.554;7.966;2022-08-23T04:36:21;16.80;99.90
15947;DHT22;8072;52.554;7.966;2022-08-23T04:38:47;16.80;99.90
15947;DHT22;8072;52.554;7.966;2022-08-23T04:41:14;16.80;99.90
15947;DHT22;8072;52.554;7.966;2022-08-23T04:43:59;16.80;99.90
15947;DHT22;8072;52.554;7.966;2022-08-23T04:46:25;16.80;99.90
15947;DHT22;8072;52.554;7.966;2022-08-23T04:48:50;16.80;99.90
15947;DHT22;8072;52.554;7.966;2022-08-23T04:51:16;16.80;99.90
15947;DHT22;8072;52.554;7.966;2022-08-23T04:53:43;16.70;99.90
15947;DHT22;8072;52.554;7.966;2022-08-23T04:56:09;16.70;99.90
15947;DHT22;8072;52.554;7.966;2022-08-23T04:58:36;16.70;99.90
15947;DHT22;8072;52.554;7.966;2022-08-23T05:01:06;16.70;99.90
15947;DHT22;8072;52.554;7.966;2022-08-23T05:03:41;16.60;99.90
15947;DHT22;8072;52.554;7.966;2022-08-23T05:06:06;16.60;99.90
15947;DHT22;8072;52.554;7.966;2022-08-23T05:08:34;16.60;99.90
15947;DHT22;8072;52.554;7.966;2022-08-23T05:11:01;16.60;99.90
15947;DHT22;8072;52.554;7.966;2022-08-23T05:13:27;16.60;99.90
15947;DHT22;8072;52.554;7.966;2022-08-23T05:15:53;16.60;99.90
15947;DHT22;8072;52.554;7.966;2022-08-23T05:18:19;16.70;99.90
15947;DHT22;8072;52.554;7.966;2022-08-23T05:20:45;16.60;99.90
15947;DHT22;8072;52.554;7.966;2022-08-23T05:23:11;16.60;99.90
15947;DHT22;8072;52.554;7.966;2022-08-23T05:25:36;16.70;99.90
15947;DHT22;8072;52.554;7.966;2022-08-23T05:28:26;16.70;99.90
15947;DHT22;8072;52.554;7.966;2022-08-23T05:30:55;16.70;99.90
15947;DHT22;8072;52.554;7.966;2022-08-23T05:33:21;16.70;99.90
15947;DHT22;8072;52.554;7.966;2022-08-23T05:35:47;16.80;99.90
15947;DHT22;8072;52.554;7.966;2022-08-23T05:38:13;16.80;99.90
15947;DHT22;8072;52.554;7.966;2022-08-23T05:40:38;16.80;99.90
15947;DHT22;8072;52.554;7.966;2022-08-23T05:43:04;16.80;99.90
15947;DHT22;8072;52.554;7.966;2022-08-23T05:45:30;16.80;99.90
15947;DHT22;8072;52.554;7.966;2022-08-23T05:47:55;16.80;99.90
15947;DHT22;8072;52.554;7.966;2022-08-23T05:50:22;16.80;99.90
15947;DHT22;8072;52.554;7.966;2022-08-23T05:52:47;16.80;99.90
15947;DHT22;8072;52.554;7.966;2022-08-23T05:55:13;16.80;99.90
15947;DHT22;8072;52.554;7.966;2022-08-23T05:57:39;16.80;99.90
15947;DHT22;8072;52.554;7.966;2022-08-23T06:00:08;16.90;99.90
15947;DHT22;8072;52.554;7.966;2022-08-23T06:02:43;16.90;99.90
15947;DHT22;8072;52.554;7.966;2022-08-23T06:05:09;16.90;99.90
15947;DHT22;8072;52.554;7.966;2022-08-23T06:07:35;17.00;99.90
15947;DHT22;8072;52.554;7.966;2022-08-23T06:10:02;17.10;99.90
15947;DHT22;8072;52.554;7.966;2022-08-23T06:12:30;17.10;99.90
15947;DHT22;8072;52.554;7.966;2022-08-23T06:14:56;17.10;99.90
15947;DHT22;8072;52.554;7.966;2022-08-23T06:17:22;17.20;99.90
15947;DHT22;8072;52.554;7.966;2022-08-23T06:19:48;17.30;99.90
15947;DHT22;8072;52.554;7.966;2022-08-23T06:22:14;17.30;99.90
15947;DHT22;8072;52.554;7.966;2022-08-23T06:24:40;17.40;99.90
15947;DHT22;8072;52.554;7.966;2022-08-23T06:27:06;17.50;99.90
15947;DHT22;8072;52.554;7.966;2022-08-23T06:29:31;17.60;99.90
15947;DHT22;8072;52.554;7.966;2022-08-23T06:31:57;17.60;99.90
15947;DHT22;8072;52.554;7.966;2022-08-23T06:36:53;17.80;99.90
15947;DHT22;8072;52.554;7.966;2022-08-23T06:39:22;17.90;99.90
15947;DHT22;8072;52.554;7.966;2022-08-23T06:41:49;18.00;99.90
15947;DHT22;8072;52.554;7.966;2022-08-23T06:44:16;18.10;99.90
15947;DHT22;8072;52.554;7.966;2022-08-23T06:46:43;18.10;99.90
15947;DHT22;8072;52.554;7.966;2022-08-23T06:49:10;18.20;99.90
15947;DHT22;8072;52.554;7.966;2022-08-23T06:51:42;18.20;99.90
15947;DHT22;8072;52.554;7.966;2022-08-23T06:54:11;18.30;99.90
15947;DHT22;8072;52.554;7.966;2022-08-23T06:56:39;18.40;99.90
15947;DHT22;8072;52.554;7.966;2022-08-23T06:59:06;18.40;99.90
15947;DHT22;8072;52.554;7.966;2022-08-23T07:01:36;18.50;99.90
15947;DHT22;8072;52.554;7.966;2022-08-23T07:04:05;18.60;99.90
15947;DHT22;8072;52.554;7.966;2022-08-23T07:06:32;18.70;99.90
15947;DHT22;8072;52.554;7.966;2022-08-23T07:08:59;18.80;99.90
15947;DHT22;8072;52.554;7.966;2022-08-23T07:11:26;18.90;99.90
15947;DHT22;8072;52.554;7.966;2022-08-23T07:13:53;19.00;99.90
15947;DHT22;8072;52.554;7.966;2022-08-23T07:16:20;19.20;99.90
15947;DHT22;8072;52.554;7.966;2022-08-23T07:18:46;19.30;99.90
15947;DHT22;8072;52.554;7.966;2022-08-23T07:21:13;19.50;99.90
15947;DHT22;8072;52.554;7.966;2022-08-23T07:23:39;19.60;99.90
15947;DHT22;8072;52.554;7.966;2022-08-23T07:26:12;19.80;99.90
15947;DHT22;8072;52.554;7.966;2022-08-23T07:28:40;20.10;99.90
15947;DHT22;8072;52.554;7.966;2022-08-23T07:31:13;20.20;99.90
15947;DHT22;8072;52.554;7.966;2022-08-23T07:33:40;20.40;99.90
15947;DHT22;8072;52.554;7.966;2022-08-23T07:36:07;20.60;99.90
15947;DHT22;8072;52.554;7.966;2022-08-23T07:38:34;20.80;99.90
15947;DHT22;8072;52.554;7.966;2022-08-23T07:41:02;20.80;99.90
15947;DHT22;8072;52.554;7.966;2022-08-23T07:43:30;21.00;99.90
15947;DHT22;8072;52.554;7.966;2022-08-23T07:45:56;21.10;99.90
15947;DHT22;8072;52.554;7.966;2022-08-23T07:48:22;21.20;99.90
15947;DHT22;8072;52.554;7.966;2022-08-23T07:50:56;21.30;99.90
15947;DHT22;8072;52.554;7.966;2022-08-23T07:53:23;21.40;99.90
15947;DHT22;8072;52.554;7.966;2022-08-23T07:55:50;21.40;99.90
15947;DHT22;8072;52.554;7.966;2022-08-23T07:58:16;21.50;99.90
15947;DHT22;8072;52.554;7.966;2022-08-23T08:00:42;21.60;99.90
15947;DHT22;8072;52.554;7.966;2022-08-23T08:03:09;21.70;99.90
15947;DHT22;8072;52.554;7.966;2022-08-23T08:05:36;21.80;99.90
15947;DHT22;8072;52.554;7.966;2022-08-23T08:08:03;21.90;99.90
15947;DHT22;8072;52.554;7.966;2022-08-23T08:10:29;22.10;99.90
15947;DHT22;8072;52.554;7.966;2022-08-23T08:12:55;22.20;99.90
15947;DHT22;8072;52.554;7.966;2022-08-23T08:15:21;22.30;99.90
15947;DHT22;8072;52.554;7.966;2022-08-23T08:17:49;22.40;99.90
15947;DHT22;8072;52.554;7.966;2022-08-23T08:20:17;22.60;99.90
15947;DHT22;8072;52.554;7.966;2022-08-23T08:22:42;22.70;99.90
15947;DHT22;8072;52.554;7.966;2022-08-23T08:25:10;22.90;99.90
15947;DHT22;8072;52.554;7.966;2022-08-23T08:27:36;23.00;99.90
15947;DHT22;8072;52.554;7.966;2022-08-23T08:30:04;23.10;99.90
15947;DHT22;8072;52.554;7.966;2022-08-23T08:32:30;23.10;99.90
15947;DHT22;8072;52.554;7.966;2022-08-23T08:34:56;23.10;99.90
15947;DHT22;8072;52.554;7.966;2022-08-23T08:37:22;23.20;99.90
15947;DHT22;8072;52.554;7.966;2022-08-23T08:39:47;23.30;99.90
15947;DHT22;8072;52.554;7.966;2022-08-23T08:45:11;23.40;99.90
15947;DHT22;8072;52.554;7.966;2022-08-23T08:47:50;23.50;99.90
15947;DHT22;8072;52.554;7.966;2022-08-23T08:55:32;23.90;99.90
15947;DHT22;8072;52.554;7.966;2022-08-23T08:58:00;24.00;99.90
15947;DHT22;8072;52.554;7.966;2022-08-23T09:00:31;24.10;99.90
15947;DHT22;8072;52.554;7.966;2022-08-23T09:02:58;24.20;99.90
15947;DHT22;8072;52.554;7.966;2022-08-23T09:05:38;24.30;99.90
15947;DHT22;8072;52.554;7.966;2022-08-23T09:14:03;24.40;99.90
15947;DHT22;8072;52.554;7.966;2022-08-23T09:19:01;24.50;99.90
15947;DHT22;8072;52.554;7.966;2022-08-23T09:21:37;24.60;99.90
15947;DHT22;8072;52.554;7.966;2022-08-23T09:24:05;24.60;99.90
15947;DHT22;8072;52.554;7.966;2022-08-23T09:26:31;24.60;99.90
15947;DHT22;8072;52.554;7.966;2022-08-23T09:29:04;24.60;99.90
15947;DHT22;8072;52.554;7.966;2022-08-23T09:31:43;24.70;99.90
15947;DHT22;8072;52.554;7.966;2022-08-23T09:34:21;24.90;99.90
15947;DHT22;8072;52.554;7.966;2022-08-23T09:36:48;25.00;99.90
15947;DHT22;8072;52.554;7.966;2022-08-23T09:39:31;25.00;99.90
15947;DHT22;8072;52.554;7.966;2022-08-23T09:41:58;25.00;99.90
15947;DHT22;8072;52.554;7.966;2022-08-23T09:44:40;25.00;99.90
15947;DHT22;8072;52.554;7.966;2022-08-23T09:47:12;25.10;99.90
15947;DHT22;8072;52.554;7.966;2022-08-23T09:49:40;25.30;99.90
15947;DHT22;8072;52.554;7.966;2022-08-23T09:52:25;25.50;99.90
15947;DHT22;8072;52.554;7.966;2022-08-23T09:54:59;25.50;99.90
15947;DHT22;8072;52.554;7.966;2022-08-23T09:57:30;25.70;99.90
15947;DHT22;8072;52.554;7.966;2022-08-23T10:00:27;25.70;99.90
15947;DHT22;8072;52.554;7.966;2022-08-23T10:05:41;26.00;99.90
15947;DHT22;8072;52.554;7.966;2022-08-23T10:08:07;26.10;99.90
15947;DHT22;8072;52.554;7.966;2022-08-23T10:10:40;26.10;99.90
15947;DHT22;8072;52.554;7.966;2022-08-23T10:13:12;26.20;99.90
15947;DHT22;8072;52.554;7.966;2022-08-23T10:16:10;26.40;99.90
15947;DHT22;8072;52.554;7.966;2022-08-23T10:24:13;26.70;99.90
15947;DHT22;8072;52.554;7.966;2022-08-23T10:26:45;26.80;99.90
15947;DHT22;8072;52.554;7.966;2022-08-23T10:29:23;26.90;99.90
15947;DHT22;8072;52.554;7.966;2022-08-23T10:35:20;27.10;99.90
15947;DHT22;8072;52.554;7.966;2022-08-23T10:40:28;27.40;99.90
15947;DHT22;8072;52.554;7.966;2022-08-23T10:43:14;27.40;99.90
15947;DHT22;8072;52.554;7.966;2022-08-23T10:45:45;27.50;99.90
15947;DHT22;8072;52.554;7.966;2022-08-23T10:48:29;27.60;99.90
15947;DHT22;8072;52.554;7.966;2022-08-23T10:53:34;27.90;99.90
15947;DHT22;8072;52.554;7.966;2022-08-23T10:56:03;28.10;99.90
15947;DHT22;8072;52.554;7.966;2022-08-23T10:58:38;28.10;99.90
15947;DHT22;8072;52.554;7.966;2022-08-23T11:01:05;28.30;99.90
15947;DHT22;8072;52.554;7.966;2022-08-23T11:03:36;28.30;99.90
15947;DHT22;8072;52.554;7.966;2022-08-23T11:09:01;28.50;99.90
15947;DHT22;8072;52.554;7.966;2022-08-23T11:14:41;28.80;99.90
15947;DHT22;8072;52.554;7.966;2022-08-23T11:17:27;28.90;99.90
15947;DHT22;8072;52.554;7.966;2022-08-23T11:22:24;29.10;99.90
15947;DHT22;8072;52.554;7.966;2022-08-23T11:27:42;29.30;99.90
15947;DHT22;8072;52.554;7.966;2022-08-23T11:33:24;29.50;99.90
15947;DHT22;8072;52.554;7.966;2022-08-23T11:36:15;29.60;99.90
15947;DHT22;8072;52.554;7.966;2022-08-23T11:43:44;29.80;99.90
15947;DHT22;8072;52.554;7.966;2022-08-23T11:56:58;30.10;99.90
15947;DHT22;8072;52.554;7.966;2022-08-23T12:05:00;30.20;99.90
15947;DHT22;8072;52.554;7.966;2022-08-23T12:07:50;30.40;99.90
15947;DHT22;8072;52.554;7.966;2022-08-23T12:18:59;30.90;99.90
15947;DHT22;8072;52.554;7.966;2022-08-23T12:21:40;31.00;99.90
15947;DHT22;8072;52.554;7.966;2022-08-23T12:24:31;31.10;99.90
15947;DHT22;8072;52.554;7.966;2022-08-23T12:30:40;31.30;99.90
15947;DHT22;8072;52.554;7.966;2022-08-23T12:32:51;31.40;99.90
15947;DHT22;8072;52.554;7.966;2022-08-23T12:40:48;31.70;99.90
15947;DHT22;8072;52.554;7.966;2022-08-23T12:48:23;31.80;99.90
15947;DHT22;8072;52.554;7.966;2022-08-23T12:51:06;31.90;99.90
15947;DHT22;8072;52.554;7.966;2022-08-23T12:53:38;31.90;99.90
15947;DHT22;8072;52.554;7.966;2022-08-23T12:56:20;31.80;99.90
15947;DHT22;8072;52.554;7.966;2022-08-23T12:58:54;31.90;99.90
15947;DHT22;8072;52.554;7.966;2022-08-23T13:01:29;31.90;99.90
15947;DHT22;8072;52.554;7.966;2022-08-23T13:04:13;31.80;99.90
15947;DHT22;8072;52.554;7.966;2022-08-23T13:11:45;31.50;99.90
15947;DHT22;8072;52.554;7.966;2022-08-23T13:16:50;31.60;99.90
15947;DHT22;8072;52.554;7.966;2022-08-23T13:19:28;31.60;99.90
15947;DHT22;8072;52.554;7.966;2022-08-23T13:22:17;31.70;99.90
15947;DHT22;8072;52.554;7.966;2022-08-23T13:27:30;31.80;99.90
15947;DHT22;8072;52.554;7.966;2022-08-23T13:29:58;31.80;99.90
15947;DHT22;8072;52.554;7.966;2022-08-23T13:37:55;32.00;99.90
15947;DHT22;8072;52.554;7.966;2022-08-23T13:40:28;32.10;99.90
15947;DHT22;8072;52.554;7.966;2022-08-23T13:43:03;32.10;99.90
15947;DHT22;8072;52.554;7.966;2022-08-23T13:45:33;32.10;99.90
15947;DHT22;8072;52.554;7.966;2022-08-23T13:48:20;32.20;99.90
15947;DHT22;8072;52.554;7.966;2022-08-23T13:50:46;32.30;99.90
15947;DHT22;8072;52.554;7.966;2022-08-23T13:53:13;32.20;99.90
15947;DHT22;8072;52.554;7.966;2022-08-23T13:58:27;32.00;99.90
15947;DHT22;8072;52.554;7.966;2022-08-23T14:00:53;31.80;99.90
15947;DHT22;8072;52.554;7.966;2022-08-23T14:03:19;31.70;99.90
15947;DHT22;8072;52.554;7.966;2022-08-23T14:05:45;31.70;99.90
15947;DHT22;8072;52.554;7.966;2022-08-23T14:08:10;31.80;99.90
15947;DHT22;8072;52.554;7.966;2022-08-23T14:10:36;31.80;99.90
15947;DHT22;8072;52.554;7.966;2022-08-23T14:13:02;32.00;99.90
15947;DHT22;8072;52.554;7.966;2022-08-23T14:15:28;32.00;99.90
15947;DHT22;8072;52.554;7.966;2022-08-23T14:17:54;32.10;99.90
15947;DHT22;8072;52.554;7.966;2022-08-23T14:20:23;32.30;99.90
15947;DHT22;8072;52.554;7.966;2022-08-23T14:22:50;32.10;99.90
15947;DHT22;8072;52.554;7.966;2022-08-23T14:25:16;32.10;99.90
15947;DHT22;8072;52.554;7.966;2022-08-23T14:27:44;32.00;99.90
15947;DHT22;8072;52.554;7.966;2022-08-23T14:30:26;31.90;99.90
15947;DHT22;8072;52.554;7.966;2022-08-23T14:32:52;31.80;99.90
15947;DHT22;8072;52.554;7.966;2022-08-23T14:35:18;31.70;99.90
15947;DHT22;8072;52.554;7.966;2022-08-23T14:37:44;31.70;99.90
15947;DHT22;8072;52.554;7.966;2022-08-23T14:40:11;31.50;99.90
15947;DHT22;8072;52.554;7.966;2022-08-23T14:42:37;31.20;99.90
15947;DHT22;8072;52.554;7.966;2022-08-23T14:45:03;31.00;99.90
15947;DHT22;8072;52.554;7.966;2022-08-23T14:47:29;31.00;99.90
15947;DHT22;8072;52.554;7.966;2022-08-23T14:49:55;31.20;99.90
15947;DHT22;8072;52.554;7.966;2022-08-23T14:52:21;31.40;99.90
15947;DHT22;8072;52.554;7.966;2022-08-23T14:54:48;31.40;99.90
15947;DHT22;8072;52.554;7.966;2022-08-23T14:57:13;31.50;99.90
15947;DHT22;8072;52.554;7.966;2022-08-23T14:59:39;31.60;99.90
15947;DHT22;8072;52.554;7.966;2022-08-23T15:02:07;31.50;99.90
15947;DHT22;8072;52.554;7.966;2022-08-23T15:04:35;31.50;99.90
15947;DHT22;8072;52.554;7.966;2022-08-23T15:07:03;31.60;99.90
15947;DHT22;8072;52.554;7.966;2022-08-23T15:09:29;31.70;99.90
15947;DHT22;8072;52.554;7.966;2022-08-23T15:11:55;31.70;99.90
15947;DHT22;8072;52.554;7.966;2022-08-23T15:14:20;31.80;99.90
15947;DHT22;8072;52.554;7.966;2022-08-23T15:16:47;31.60;99.80
15947;DHT22;8072;52.554;7.966;2022-08-23T15:19:13;31.60;99.50
15947;DHT22;8072;52.554;7.966;2022-08-23T15:21:38;31.60;99.90
15947;DHT22;8072;52.554;7.966;2022-08-23T15:24:04;31.60;99.40
15947;DHT22;8072;52.554;7.966;2022-08-23T15:26:30;31.60;99.50
15947;DHT22;8072;52.554;7.966;2022-08-23T15:28:59;31.60;99.30
15947;DHT22;8072;52.554;7.966;2022-08-23T15:31:27;31.50;99.60
15947;DHT22;8072;52.554;7.966;2022-08-23T15:33:53;31.50;99.40
15947;DHT22;8072;52.554;7.966;2022-08-23T15:36:19;31.50;99.90
15947;DHT22;8072;52.554;7.966;2022-08-23T15:38:46;31.40;99.70
15947;DHT22;8072;52.554;7.966;2022-08-23T15:41:13;31.30;99.30
15947;DHT22;8072;52.554;7.966;2022-08-23T15:43:40;31.30;99.90
15947;DHT22;8072;52.554;7.966;2022-08-23T15:46:07;31.30;99.90
15947;DHT22;8072;52.554;7.966;2022-08-23T15:48:43;31.20;99.20
15947;DHT22;8072;52.554;7.966;2022-08-23T15:51:10;31.20;99.60
15947;DHT22;8072;52.554;7.966;2022-08-23T15:53:37;31.30;99.80
15947;DHT22;8072;52.554;7.966;2022-08-23T15:56:09;31.30;99.40
15947;DHT22;8072;52.554;7.966;2022-08-23T15:58:36;31.10;99.60
15947;DHT22;8072;52.554;7.966;2022-08-23T16:01:03;31.10;99.60
15947;DHT22;8072;52.554;7.966;2022-08-23T16:03:29;31.10;99.80
15947;DHT22;8072;52.554;7.966;2022-08-23T16:05:56;31.10;99.50
15947;DHT22;8072;52.554;7.966;2022-08-23T16:08:30;31.00;99.40
15947;DHT22;8072;52.554;7.966;2022-08-23T16:10:56;31.00;99.50
15947;DHT22;8072;52.554;7.966;2022-08-23T16:13:25;31.00;99.50
15947;DHT22;8072;52.554;7.966;2022-08-23T16:15:51;30.90;99.60
15947;DHT22;8072;52.554;7.966;2022-08-23T16:18:18;30.90;99.90
15947;DHT22;8072;52.554;7.966;2022-08-23T16:20:44;30.80;99.90
15947;DHT22;8072;52.554;7.966;2022-08-23T16:23:10;30.60;99.90
15947;DHT22;8072;52.554;7.966;2022-08-23T16:25:36;30.40;99.90
15947;DHT22;8072;52.554;7.966;2022-08-23T16:28:03;30.30;99.90
15947;DHT22;8072;52.554;7.966;2022-08-23T16:30:29;30.20;99.90
15947;DHT22;8072;52.554;7.966;2022-08-23T16:32:56;30.10;99.90
15947;DHT22;8072;52.554;7.966;2022-08-23T16:35:22;30.10;99.90
15947;DHT22;8072;52.554;7.966;2022-08-23T16:37:48;30.00;99.90
15947;DHT22;8072;52.554;7.966;2022-08-23T16:40:14;29.90;99.90
15947;DHT22;8072;52.554;7.966;2022-08-23T16:42:40;29.80;99.90
15947;DHT22;8072;52.554;7.966;2022-08-23T16:45:07;29.80;99.90
15947;DHT22;8072;52.554;7.966;2022-08-23T16:47:40;29.70;99.90
15947;DHT22;8072;52.554;7.966;2022-08-23T16:50:07;29.70;99.90
15947;DHT22;8072;52.554;7.966;2022-08-23T16:52:34;29.70;99.90
15947;DHT22;8072;52.554;7.966;2022-08-23T16:55:02;29.60;99.90
15947;DHT22;8072;52.554;7.966;2022-08-23T16:57:27;29.50;99.90
15947;DHT22;8072;52.554;7.966;2022-08-23T16:59:53;29.50;99.90
15947;DHT22;8072;52.554;7.966;2022-08-23T17:02:31;29.50;99.90
15947;DHT22;8072;52.554;7.966;2022-08-23T17:04:58;29.50;99.90
15947;DHT22;8072;52.554;7.966;2022-08-23T17:07:24;29.40;99.90
15947;DHT22;8072;52.554;7.966;2022-08-23T17:09:50;29.40;99.90
15947;DHT22;8072;52.554;7.966;2022-08-23T17:12:17;29.40;99.90
15947;DHT22;8072;52.554;7.966;2022-08-23T17:14:44;29.40;99.90
15947;DHT22;8072;52.554;7.966;2022-08-23T17:17:11;29.30;99.90
15947;DHT22;8072;52.554;7.966;2022-08-23T17:19:38;29.30;99.90
15947;DHT22;8072;52.554;7.966;2022-08-23T17:22:04;29.20;99.90
15947;DHT22;8072;52.554;7.966;2022-08-23T17:24:29;29.20;99.90
15947;DHT22;8072;52.554;7.966;2022-08-23T17:26:55;29.10;99.90
15947;DHT22;8072;52.554;7.966;2022-08-23T17:29:21;29.00;99.90
15947;DHT22;8072;52.554;7.966;2022-08-23T17:31:47;28.90;99.90
15947;DHT22;8072;52.554;7.966;2022-08-23T17:34:13;28.90;99.90
15947;DHT22;8072;52.554;7.966;2022-08-23T17:36:51;28.80;99.90
15947;DHT22;8072;52.554;7.966;2022-08-23T17:39:20;28.70;99.90
15947;DHT22;8072;52.554;7.966;2022-08-23T17:41:47;28.60;99.90
15947;DHT22;8072;52.554;7.966;2022-08-23T17:44:13;28.60;99.90
15947;DHT22;8072;52.554;7.966;2022-08-23T17:46:41;28.40;99.90
15947;DHT22;8072;52.554;7.966;2022-08-23T17:49:08;28.30;99.90
15947;DHT22;8072;52.554;7.966;2022-08-23T17:51:35;28.30;99.90
15947;DHT22;8072;52.554;7.966;2022-08-23T17:54:02;28.10;99.90
15947;DHT22;8072;52.554;7.966;2022-08-23T17:56:28;28.00;99.90